sensor_id;sensor_type;location;lat;lon;timestamp;temperature;humidity
17845;DHT22;9047;53.486;10.218;2023-02-15T00:02:07;5.00;99.90
17845;DHT22;9047;53.486;10.218;2023-02-15T00:04:36;5.00;99.90
17845;DHT22;9047;53.486;10.218;2023-02-15T00:07:17;5.00;99.90
17845;DHT22;9047;53.486;10.218;2023-02-15T00:09:45;5.00;99.90
17845;DHT22;9047;53.486;10.218;2023-02-15T00:12:13;5.00;99.90
17845;DHT22;9047;53.486;10.218;2023-02-15T00:14:43;5.00;99.90
17845;DHT22;9047;53.486;10.218;2023-02-15T00:17:10;5.00;99.90
17845;DHT22;9047;53.486;10.218;2023-02-15T00:19:38;5.00;99.90
17845;DHT22;9047;53.486;10.218;2023-02-15T00:22:06;5.00;99.90
17845;DHT22;9047;53.486;10.218;2023-02-15T00:24:33;5.00;99.90
17845;DHT22;9047;53.486;10.218;2023-02-15T00:27:00;5.00;99.90
17845;DHT22;9047;53.486;10.218;2023-02-15T00:29:27;5.00;99.90
17845;DHT22;9047;53.486;10.218;2023-02-15T00:31:56;5.00;99.90
17845;DHT22;9047;53.486;10.218;2023-02-15T00:34:25;5.00;99.90
17845;DHT22;9047;53.486;10.218;2023-02-15T00:36:54;5.00;99.90
17845;DHT22;9047;53.486;10.218;2023-02-15T00:39:21;5.00;99.90
17845;DHT22;9047;53.486;10.218;2023-02-15T00:41:49;5.00;99.90
17845;DHT22;9047;53.486;10.218;2023-02-15T00:44:17;4.90;99.90
17845;DHT22;9047;53.486;10.218;2023-02-15T00:46:44;4.90;99.90
17845;DHT22;9047;53.486;10.218;2023-02-15T00:49:11;4.90;99.90
17845;DHT22;9047;53.486;10.218;2023-02-15T00:51:40;4.90;99.90
17845;DHT22;9047;53.486;10.218;2023-02-15T00:54:09;4.90;99.90
17845;DHT22;9047;53.486;10.218;2023-02-15T00:56:35;4.90;99.90
17845;DHT22;9047;53.486;10.218;2023-02-15T00:59:03;4.90;99.90
17845;DHT22;9047;53.486;10.218;2023-02-15T01:01:32;4.80;99.90
17845;DHT22;9047;53.486;10.218;2023-02-15T01:03:58;4.80;99.90
17845;DHT22;9047;53.486;10.218;2023-02-15T01:06:26;4.80;99.90
17845;DHT22;9047;53.486;10.218;2023-02-15T01:08:53;4.80;99.90
17845;DHT22;9047;53.486;10.218;2023-02-15T01:11:25;4.80;99.90
17845;DHT22;9047;53.486;10.218;2023-02-15T01:13:56;4.80;99.90
17845;DHT22;9047;53.486;10.218;2023-02-15T01:16:26;4.80;99.90
17845;DHT22;9047;53.486;10.218;2023-02-15T01:18:53;4.70;99.90
17845;DHT22;9047;53.486;10.218;2023-02-15T01:21:25;4.70;99.90
17845;DHT22;9047;53.486;10.218;2023-02-15T01:23:52;4.70;99.90
17845;DHT22;9047;53.486;10.218;2023-02-15T01:26:18;4.70;99.90
17845;DHT22;9047;53.486;10.218;2023-02-15T01:28:48;4.70;99.90
17845;DHT22;9047;53.486;10.218;2023-02-15T01:31:18;4.70;99.90
17845;DHT22;9047;53.486;10.218;2023-02-15T01:33:49;4.70;99.90
17845;DHT22;9047;53.486;10.218;2023-02-15T01:36:15;4.60;99.90
17845;DHT22;9047;53.486;10.218;2023-02-15T01:38:43;4.60;99.90
17845;DHT22;9047;53.486;10.218;2023-02-15T01:41:12;4.60;99.90
17845;DHT22;9047;53.486;10.218;2023-02-15T01:43:55;4.60;99.90
17845;DHT22;9047;53.486;10.218;2023-02-15T01:46:31;4.60;99.90
17845;DHT22;9047;53.486;10.218;2023-02-15T01:49:03;4.60;99.90
17845;DHT22;9047;53.486;10.218;2023-02-15T01:51:34;4.60;99.90
17845;DHT22;9047;53.486;10.218;2023-02-15T01:54:09;4.50;99.90
17845;DHT22;9047;53.486;10.218;2023-02-15T01:56:38;4.50;99.90
17845;DHT22;9047;53.486;10.218;2023-02-15T01:59:11;4.50;99.90
17845;DHT22;9047;53.486;10.218;2023-02-15T02:01:39;4.50;99.90
17845;DHT22;9047;53.486;10.218;2023-02-15T02:04:13;4.50;99.90
17845;DHT22;9047;53.486;10.218;2023-02-15T02:06:46;4.50;99.90
17845;DHT22;9047;53.486;10.218;2023-02-15T02:09:14;4.50;99.90
17845;DHT22;9047;53.486;10.218;2023-02-15T02:11:44;4.50;99.90
17845;DHT22;9047;53.486;10.218;2023-02-15T02:14:13;4.50;99.90
17845;DHT22;9047;53.486;10.218;2023-02-15T02:16:44;4.40;99.90
17845;DHT22;9047;53.486;10.218;2023-02-15T02:19:43;4.40;99.90
17845;DHT22;9047;53.486;10.218;2023-02-15T02:22:38;4.40;99.90
17845;DHT22;9047;53.486;10.218;2023-02-15T02:28:41;4.30;99.90
17845;DHT22;9047;53.486;10.218;2023-02-15T02:31:40;4.30;99.90
17845;DHT22;9047;53.486;10.218;2023-02-15T02:34:13;4.30;99.90
17845;DHT22;9047;53.486;10.218;2023-02-15T02:36:49;4.30;99.90
17845;DHT22;9047;53.486;10.218;2023-02-15T02:39:25;4.30;99.90
17845;DHT22;9047;53.486;10.218;2023-02-15T02:42:00;4.30;99.90
17845;DHT22;9047;53.486;10.218;2023-02-15T02:44:31;4.20;99.90
17845;DHT22;9047;53.486;10.218;2023-02-15T02:47:06;4.20;99.90
17845;DHT22;9047;53.486;10.218;2023-02-15T02:49:39;4.20;99.90
17845;DHT22;9047;53.486;10.218;2023-02-15T02:54:53;4.20;99.90
17845;DHT22;9047;53.486;10.218;2023-02-15T02:57:23;4.20;99.90
17845;DHT22;9047;53.486;10.218;2023-02-15T02:59:54;4.10;99.90
17845;DHT22;9047;53.486;10.218;2023-02-15T03:02:25;4.10;99.90
17845;DHT22;9047;53.486;10.218;2023-02-15T03:04:57;4.10;99.90
17845;DHT22;9047;53.486;10.218;2023-02-15T03:07:30;4.00;99.90
17845;DHT22;9047;53.486;10.218;2023-02-15T03:09:59;4.00;99.90
17845;DHT22;9047;53.486;10.218;2023-02-15T03:12:30;4.00;99.90
17845;DHT22;9047;53.486;10.218;2023-02-15T03:15:03;4.00;99.90
17845;DHT22;9047;53.486;10.218;2023-02-15T03:17:36;3.90;99.90
17845;DHT22;9047;53.486;10.218;2023-02-15T03:20:10;3.90;99.90
17845;DHT22;9047;53.486;10.218;2023-02-15T03:22:40;3.90;99.90
17845;DHT22;9047;53.486;10.218;2023-02-15T03:25:10;3.80;99.90
17845;DHT22;9047;53.486;10.218;2023-02-15T03:27:41;3.80;99.90
17845;DHT22;9047;53.486;10.218;2023-02-15T03:30:12;3.70;99.90
17845;DHT22;9047;53.486;10.218;2023-02-15T03:32:41;3.70;99.90
17845;DHT22;9047;53.486;10.218;2023-02-15T03:35:11;3.70;99.90
17845;DHT22;9047;53.486;10.218;2023-02-15T03:37:41;3.60;99.90
17845;DHT22;9047;53.486;10.218;2023-02-15T03:40:15;3.60;99.90
17845;DHT22;9047;53.486;10.218;2023-02-15T03:43:08;3.60;99.90
17845;DHT22;9047;53.486;10.218;2023-02-15T03:45:40;3.50;99.90
17845;DHT22;9047;53.486;10.218;2023-02-15T03:48:21;3.60;99.90
17845;DHT22;9047;53.486;10.218;2023-02-15T03:50:52;3.50;99.90
17845;DHT22;9047;53.486;10.218;2023-02-15T03:53:39;3.50;99.90
17845;DHT22;9047;53.486;10.218;2023-02-15T03:56:08;3.50;99.90
17845;DHT22;9047;53.486;10.218;2023-02-15T03:58:35;3.40;99.90
17845;DHT22;9047;53.486;10.218;2023-02-15T04:01:25;3.40;99.90
17845;DHT22;9047;53.486;10.218;2023-02-15T04:04:16;3.50;99.90
17845;DHT22;9047;53.486;10.218;2023-02-15T04:06:48;3.30;99.90
17845;DHT22;9047;53.486;10.218;2023-02-15T04:09:15;3.30;99.90
17845;DHT22;9047;53.486;10.218;2023-02-15T04:12:03;3.30;99.90
17845;DHT22;9047;53.486;10.218;2023-02-15T04:14:33;3.30;99.90
17845;DHT22;9047;53.486;10.218;2023-02-15T04:17:17;3.20;99.90
17845;DHT22;9047;53.486;10.218;2023-02-15T04:19:46;3.20;99.90
17845;DHT22;9047;53.486;10.218;2023-02-15T04:22:32;3.10;99.90
17845;DHT22;9047;53.486;10.218;2023-02-15T04:25:17;3.10;99.90
17845;DHT22;9047;53.486;10.218;2023-02-15T04:27:47;3.00;99.90
17845;DHT22;9047;53.486;10.218;2023-02-15T04:30:18;3.00;99.90
17845;DHT22;9047;53.486;10.218;2023-02-15T04:32:46;3.00;99.90
17845;DHT22;9047;53.486;10.218;2023-02-15T04:35:14;3.00;99.90
17845;DHT22;9047;53.486;10.218;2023-02-15T04:37:43;3.00;99.90
17845;DHT22;9047;53.486;10.218;2023-02-15T04:40:13;3.00;99.90
17845;DHT22;9047;53.486;10.218;2023-02-15T04:42:42;3.00;99.90
17845;DHT22;9047;53.486;10.218;2023-02-15T04:45:11;3.00;99.90
17845;DHT22;9047;53.486;10.218;2023-02-15T04:47:38;2.90;99.90
17845;DHT22;9047;53.486;10.218;2023-02-15T04:50:06;2.90;99.90
17845;DHT22;9047;53.486;10.218;2023-02-15T04:52:36;2.90;99.90
17845;DHT22;9047;53.486;10.218;2023-02-15T04:55:10;2.90;99.90
17845;DHT22;9047;53.486;10.218;2023-02-15T04:57:37;2.90;99.90
17845;DHT22;9047;53.486;10.218;2023-02-15T05:00:06;2.80;99.90
17845;DHT22;9047;53.486;10.218;2023-02-15T05:02:34;2.90;99.90
17845;DHT22;9047;53.486;10.218;2023-02-15T05:05:02;2.90;99.90
17845;DHT22;9047;53.486;10.218;2023-02-15T05:07:30;2.80;99.90
17845;DHT22;9047;53.486;10.218;2023-02-15T05:09:58;2.80;99.90
17845;DHT22;9047;53.486;10.218;2023-02-15T05:12:30;2.80;99.90
17845;DHT22;9047;53.486;10.218;2023-02-15T05:14:58;2.80;99.90
17845;DHT22;9047;53.486;10.218;2023-02-15T05:17:26;2.80;99.90
17845;DHT22;9047;53.486;10.218;2023-02-15T05:19:56;2.80;99.90
17845;DHT22;9047;53.486;10.218;2023-02-15T05:22:25;2.70;99.90
17845;DHT22;9047;53.486;10.218;2023-02-15T05:24:52;2.70;99.90
17845;DHT22;9047;53.486;10.218;2023-02-15T05:27:39;2.70;99.90
17845;DHT22;9047;53.486;10.218;2023-02-15T05:30:24;2.80;99.90
17845;DHT22;9047;53.486;10.218;2023-02-15T05:32:51;2.70;99.90
17845;DHT22;9047;53.486;10.218;2023-02-15T05:35:21;2.70;99.90
17845;DHT22;9047;53.486;10.218;2023-02-15T05:37:47;2.70;99.90
17845;DHT22;9047;53.486;10.218;2023-02-15T05:40:16;2.60;99.90
17845;DHT22;9047;53.486;10.218;2023-02-15T05:42:53;2.60;99.90
17845;DHT22;9047;53.486;10.218;2023-02-15T05:45:20;2.50;99.90
17845;DHT22;9047;53.486;10.218;2023-02-15T05:47:47;2.50;99.90
17845;DHT22;9047;53.486;10.218;2023-02-15T05:50:14;2.50;99.90
17845;DHT22;9047;53.486;10.218;2023-02-15T05:52:42;2.50;99.90
17845;DHT22;9047;53.486;10.218;2023-02-15T05:55:10;2.50;99.90
17845;DHT22;9047;53.486;10.218;2023-02-15T05:57:41;2.40;99.90
17845;DHT22;9047;53.486;10.218;2023-02-15T06:00:19;2.40;99.90
17845;DHT22;9047;53.486;10.218;2023-02-15T06:02:47;2.50;99.90
17845;DHT22;9047;53.486;10.218;2023-02-15T06:05:15;2.40;99.90
17845;DHT22;9047;53.486;10.218;2023-02-15T06:07:43;2.50;99.90
17845;DHT22;9047;53.486;10.218;2023-02-15T06:10:12;2.40;99.90
17845;DHT22;9047;53.486;10.218;2023-02-15T06:12:43;2.40;99.90
17845;DHT22;9047;53.486;10.218;2023-02-15T06:15:14;2.40;99.90
17845;DHT22;9047;53.486;10.218;2023-02-15T06:17:41;2.40;99.90
17845;DHT22;9047;53.486;10.218;2023-02-15T06:20:10;2.40;99.90
17845;DHT22;9047;53.486;10.218;2023-02-15T06:22:37;2.40;99.90
17845;DHT22;9047;53.486;10.218;2023-02-15T06:25:11;2.40;99.90
17845;DHT22;9047;53.486;10.218;2023-02-15T06:27:56;2.40;99.90
17845;DHT22;9047;53.486;10.218;2023-02-15T06:30:54;2.40;99.90
17845;DHT22;9047;53.486;10.218;2023-02-15T06:33:22;2.40;99.90
17845;DHT22;9047;53.486;10.218;2023-02-15T06:35:50;2.40;99.90
17845;DHT22;9047;53.486;10.218;2023-02-15T06:38:20;2.40;99.90
17845;DHT22;9047;53.486;10.218;2023-02-15T06:43:26;2.40;99.90
17845;DHT22;9047;53.486;10.218;2023-02-15T06:46:00;2.40;99.90
17845;DHT22;9047;53.486;10.218;2023-02-15T06:48:42;2.40;99.90
17845;DHT22;9047;53.486;10.218;2023-02-15T06:51:11;2.30;99.90
17845;DHT22;9047;53.486;10.218;2023-02-15T06:53:38;2.30;99.90
17845;DHT22;9047;53.486;10.218;2023-02-15T06:56:09;2.30;99.90
17845;DHT22;9047;53.486;10.218;2023-02-15T06:58:41;2.30;99.90
17845;DHT22;9047;53.486;10.218;2023-02-15T07:01:11;2.30;99.90
17845;DHT22;9047;53.486;10.218;2023-02-15T07:03:41;2.30;99.90
17845;DHT22;9047;53.486;10.218;2023-02-15T07:06:11;2.20;99.90
17845;DHT22;9047;53.486;10.218;2023-02-15T07:08:40;2.20;99.90
17845;DHT22;9047;53.486;10.218;2023-02-15T07:11:08;2.20;99.90
17845;DHT22;9047;53.486;10.218;2023-02-15T07:13:49;2.20;99.90
17845;DHT22;9047;53.486;10.218;2023-02-15T07:16:20;2.20;99.90
17845;DHT22;9047;53.486;10.218;2023-02-15T07:18:48;2.20;99.90
17845;DHT22;9047;53.486;10.218;2023-02-15T07:21:16;2.20;99.90
17845;DHT22;9047;53.486;10.218;2023-02-15T07:23:51;2.20;99.90
17845;DHT22;9047;53.486;10.218;2023-02-15T07:26:18;2.30;99.90
17845;DHT22;9047;53.486;10.218;2023-02-15T07:28:45;2.30;99.90
17845;DHT22;9047;53.486;10.218;2023-02-15T07:31:13;2.30;99.90
17845;DHT22;9047;53.486;10.218;2023-02-15T07:33:45;2.20;99.90
17845;DHT22;9047;53.486;10.218;2023-02-15T07:36:12;2.20;99.90
17845;DHT22;9047;53.486;10.218;2023-02-15T07:38:41;2.20;99.90
17845;DHT22;9047;53.486;10.218;2023-02-15T07:41:11;2.20;99.90
17845;DHT22;9047;53.486;10.218;2023-02-15T07:43:42;2.20;99.90
17845;DHT22;9047;53.486;10.218;2023-02-15T07:46:13;2.30;99.90
17845;DHT22;9047;53.486;10.218;2023-02-15T07:48:45;2.30;99.90
17845;DHT22;9047;53.486;10.218;2023-02-15T07:51:13;2.40;99.90
17845;DHT22;9047;53.486;10.218;2023-02-15T07:53:40;2.40;99.90
17845;DHT22;9047;53.486;10.218;2023-02-15T07:56:10;2.40;99.90
17845;DHT22;9047;53.486;10.218;2023-02-15T07:58:38;2.40;99.90
17845;DHT22;9047;53.486;10.218;2023-02-15T08:01:18;2.40;99.90
17845;DHT22;9047;53.486;10.218;2023-02-15T08:03:49;2.50;99.90
17845;DHT22;9047;53.486;10.218;2023-02-15T08:06:16;2.40;99.90
17845;DHT22;9047;53.486;10.218;2023-02-15T08:08:43;2.50;99.90
17845;DHT22;9047;53.486;10.218;2023-02-15T08:11:18;2.50;99.90
17845;DHT22;9047;53.486;10.218;2023-02-15T08:14:05;2.50;99.90
17845;DHT22;9047;53.486;10.218;2023-02-15T08:16:34;2.60;99.90
17845;DHT22;9047;53.486;10.218;2023-02-15T08:19:05;2.60;99.90
17845;DHT22;9047;53.486;10.218;2023-02-15T08:21:36;2.70;99.90
17845;DHT22;9047;53.486;10.218;2023-02-15T08:24:08;2.70;99.90
17845;DHT22;9047;53.486;10.218;2023-02-15T08:26:37;2.70;99.90
17845;DHT22;9047;53.486;10.218;2023-02-15T08:29:08;2.80;99.90
17845;DHT22;9047;53.486;10.218;2023-02-15T08:31:37;2.80;99.90
17845;DHT22;9047;53.486;10.218;2023-02-15T08:34:08;2.80;99.90
17845;DHT22;9047;53.486;10.218;2023-02-15T08:36:40;2.80;99.90
17845;DHT22;9047;53.486;10.218;2023-02-15T08:39:07;2.70;99.90
17845;DHT22;9047;53.486;10.218;2023-02-15T08:41:36;2.70;99.90
17845;DHT22;9047;53.486;10.218;2023-02-15T08:44:17;2.70;99.90
17845;DHT22;9047;53.486;10.218;2023-02-15T08:46:47;2.70;99.90
17845;DHT22;9047;53.486;10.218;2023-02-15T08:49:18;2.70;99.90
17845;DHT22;9047;53.486;10.218;2023-02-15T08:51:47;2.70;99.90
17845;DHT22;9047;53.486;10.218;2023-02-15T08:54:17;2.70;99.90
17845;DHT22;9047;53.486;10.218;2023-02-15T08:56:46;2.70;99.90
17845;DHT22;9047;53.486;10.218;2023-02-15T08:59:15;2.70;99.90
17845;DHT22;9047;53.486;10.218;2023-02-15T09:01:44;2.70;99.90
17845;DHT22;9047;53.486;10.218;2023-02-15T09:04:12;2.70;99.90
17845;DHT22;9047;53.486;10.218;2023-02-15T09:06:45;2.70;99.90
17845;DHT22;9047;53.486;10.218;2023-02-15T09:09:12;2.60;99.90
17845;DHT22;9047;53.486;10.218;2023-02-15T09:11:41;2.70;99.90
17845;DHT22;9047;53.486;10.218;2023-02-15T09:14:12;2.70;99.90
17845;DHT22;9047;53.486;10.218;2023-02-15T09:16:43;2.70;99.90
17845;DHT22;9047;53.486;10.218;2023-02-15T09:19:12;2.80;99.90
17845;DHT22;9047;53.486;10.218;2023-02-15T09:21:43;2.90;99.90
17845;DHT22;9047;53.486;10.218;2023-02-15T09:24:16;2.90;99.90
17845;DHT22;9047;53.486;10.218;2023-02-15T09:26:47;3.00;99.90
17845;DHT22;9047;53.486;10.218;2023-02-15T09:29:17;3.10;99.90
17845;DHT22;9047;53.486;10.218;2023-02-15T09:31:46;3.20;99.90
17845;DHT22;9047;53.486;10.218;2023-02-15T09:34:18;3.10;99.90
17845;DHT22;9047;53.486;10.218;2023-02-15T09:36:50;3.20;99.90
17845;DHT22;9047;53.486;10.218;2023-02-15T09:39:21;3.20;99.90
17845;DHT22;9047;53.486;10.218;2023-02-15T09:45:04;3.20;99.90
17845;DHT22;9047;53.486;10.218;2023-02-15T09:47:55;3.30;99.90
17845;DHT22;9047;53.486;10.218;2023-02-15T09:50:37;3.40;99.90
17845;DHT22;9047;53.486;10.218;2023-02-15T09:53:20;3.50;99.90
17845;DHT22;9047;53.486;10.218;2023-02-15T09:56:09;3.50;99.90
17845;DHT22;9047;53.486;10.218;2023-02-15T09:58:46;3.60;99.90
17845;DHT22;9047;53.486;10.218;2023-02-15T10:01:25;3.70;99.90
17845;DHT22;9047;53.486;10.218;2023-02-15T10:04:25;3.80;99.90
17845;DHT22;9047;53.486;10.218;2023-02-15T10:07:08;3.90;99.90
17845;DHT22;9047;53.486;10.218;2023-02-15T10:10:05;4.00;99.90
17845;DHT22;9047;53.486;10.218;2023-02-15T10:12:48;4.10;99.90
17845;DHT22;9047;53.486;10.218;2023-02-15T10:15:28;4.20;99.90
17845;DHT22;9047;53.486;10.218;2023-02-15T10:20:55;4.30;99.90
17845;DHT22;9047;53.486;10.218;2023-02-15T10:26:30;4.50;99.90
17845;DHT22;9047;53.486;10.218;2023-02-15T10:29:05;4.50;99.90
17845;DHT22;9047;53.486;10.218;2023-02-15T10:31:39;4.50;99.90
17845;DHT22;9047;53.486;10.218;2023-02-15T10:34:16;4.60;99.90
17845;DHT22;9047;53.486;10.218;2023-02-15T10:37:01;4.50;99.90
17845;DHT22;9047;53.486;10.218;2023-02-15T10:39:39;4.60;99.90
17845;DHT22;9047;53.486;10.218;2023-02-15T10:42:16;4.60;99.90
17845;DHT22;9047;53.486;10.218;2023-02-15T10:44:54;4.60;99.90
17845;DHT22;9047;53.486;10.218;2023-02-15T10:47:41;4.70;99.90
17845;DHT22;9047;53.486;10.218;2023-02-15T10:50:23;4.70;99.90
17845;DHT22;9047;53.486;10.218;2023-02-15T10:53:13;4.70;99.90
17845;DHT22;9047;53.486;10.218;2023-02-15T10:56:01;4.80;99.90
17845;DHT22;9047;53.486;10.218;2023-02-15T10:58:41;4.80;99.90
17845;DHT22;9047;53.486;10.218;2023-02-15T11:01:15;4.80;99.90
17845;DHT22;9047;53.486;10.218;2023-02-15T11:04:06;4.80;99.90
17845;DHT22;9047;53.486;10.218;2023-02-15T11:06:39;4.90;99.90
17845;DHT22;9047;53.486;10.218;2023-02-15T11:09:21;4.90;99.90
17845;DHT22;9047;53.486;10.218;2023-02-15T11:11:51;5.00;99.90
17845;DHT22;9047;53.486;10.218;2023-02-15T11:14:31;5.10;99.90
17845;DHT22;9047;53.486;10.218;2023-02-15T11:17:04;5.20;99.90
17845;DHT22;9047;53.486;10.218;2023-02-15T11:19:34;5.30;99.90
17845;DHT22;9047;53.486;10.218;2023-02-15T11:22:04;5.30;99.90
17845;DHT22;9047;53.486;10.218;2023-02-15T11:24:42;5.40;99.90
17845;DHT22;9047;53.486;10.218;2023-02-15T11:27:19;5.20;99.90
17845;DHT22;9047;53.486;10.218;2023-02-15T11:29:56;5.30;99.90
17845;DHT22;9047;53.486;10.218;2023-02-15T11:32:27;5.40;99.90
17845;DHT22;9047;53.486;10.218;2023-02-15T11:34:59;5.50;99.90
17845;DHT22;9047;53.486;10.218;2023-02-15T11:37:40;5.60;99.90
17845;DHT22;9047;53.486;10.218;2023-02-15T11:40:19;5.80;99.90
17845;DHT22;9047;53.486;10.218;2023-02-15T11:42:48;5.90;99.90
17845;DHT22;9047;53.486;10.218;2023-02-15T11:45:27;5.90;99.90
17845;DHT22;9047;53.486;10.218;2023-02-15T11:47:57;6.00;99.90
17845;DHT22;9047;53.486;10.218;2023-02-15T11:50:27;6.10;99.90
17845;DHT22;9047;53.486;10.218;2023-02-15T11:52:59;6.20;99.90
17845;DHT22;9047;53.486;10.218;2023-02-15T11:55:27;6.20;99.90
17845;DHT22;9047;53.486;10.218;2023-02-15T11:57:59;6.20;99.90
17845;DHT22;9047;53.486;10.218;2023-02-15T12:00:33;6.30;99.90
17845;DHT22;9047;53.486;10.218;2023-02-15T12:03:07;6.40;99.90
17845;DHT22;9047;53.486;10.218;2023-02-15T12:05:40;6.40;99.90
17845;DHT22;9047;53.486;10.218;2023-02-15T12:08:14;6.40;99.90
17845;DHT22;9047;53.486;10.218;2023-02-15T12:11:17;6.30;99.90
17845;DHT22;9047;53.486;10.218;2023-02-15T12:14:00;6.30;99.90
17845;DHT22;9047;53.486;10.218;2023-02-15T12:16:40;6.20;99.90
17845;DHT22;9047;53.486;10.218;2023-02-15T12:19:18;6.10;99.90
17845;DHT22;9047;53.486;10.218;2023-02-15T12:21:49;6.20;99.90
17845;DHT22;9047;53.486;10.218;2023-02-15T12:24:19;6.40;99.90
17845;DHT22;9047;53.486;10.218;2023-02-15T12:26:56;6.40;99.90
17845;DHT22;9047;53.486;10.218;2023-02-15T12:29:30;6.40;99.90
17845;DHT22;9047;53.486;10.218;2023-02-15T12:32:00;6.30;99.90
17845;DHT22;9047;53.486;10.218;2023-02-15T12:34:30;6.30;99.90
17845;DHT22;9047;53.486;10.218;2023-02-15T12:37:02;6.30;99.90
17845;DHT22;9047;53.486;10.218;2023-02-15T12:39:36;6.20;99.90
17845;DHT22;9047;53.486;10.218;2023-02-15T12:42:08;6.20;99.90
17845;DHT22;9047;53.486;10.218;2023-02-15T12:44:54;6.20;99.90
17845;DHT22;9047;53.486;10.218;2023-02-15T12:47:22;6.30;99.90
17845;DHT22;9047;53.486;10.218;2023-02-15T12:50:12;6.40;99.90
17845;DHT22;9047;53.486;10.218;2023-02-15T12:52:44;6.60;99.90
17845;DHT22;9047;53.486;10.218;2023-02-15T12:55:19;6.70;99.90
17845;DHT22;9047;53.486;10.218;2023-02-15T12:57:47;6.70;99.90
17845;DHT22;9047;53.486;10.218;2023-02-15T13:00:27;6.70;99.90
17845;DHT22;9047;53.486;10.218;2023-02-15T13:03:00;6.70;99.90
17845;DHT22;9047;53.486;10.218;2023-02-15T13:05:32;6.60;99.90
17845;DHT22;9047;53.486;10.218;2023-02-15T13:08:08;6.60;99.90
17845;DHT22;9047;53.486;10.218;2023-02-15T13:10:41;6.60;99.90
17845;DHT22;9047;53.486;10.218;2023-02-15T13:13:10;6.60;99.90
17845;DHT22;9047;53.486;10.218;2023-02-15T13:15:45;6.60;99.90
17845;DHT22;9047;53.486;10.218;2023-02-15T13:18:31;6.60;99.90
17845;DHT22;9047;53.486;10.218;2023-02-15T13:21:06;6.60;99.90
17845;DHT22;9047;53.486;10.218;2023-02-15T13:23:39;6.80;99.90
17845;DHT22;9047;53.486;10.218;2023-02-15T13:26:13;6.80;99.90
17845;DHT22;9047;53.486;10.218;2023-02-15T13:28:44;6.90;99.90
17845;DHT22;9047;53.486;10.218;2023-02-15T13:31:15;6.90;99.90
17845;DHT22;9047;53.486;10.218;2023-02-15T13:33:46;6.90;99.90
17845;DHT22;9047;53.486;10.218;2023-02-15T13:36:21;7.00;99.90
17845;DHT22;9047;53.486;10.218;2023-02-15T13:38:59;7.00;99.90
17845;DHT22;9047;53.486;10.218;2023-02-15T13:41:39;7.10;99.90
17845;DHT22;9047;53.486;10.218;2023-02-15T13:44:17;7.20;99.90
17845;DHT22;9047;53.486;10.218;2023-02-15T13:46:55;7.30;99.90
17845;DHT22;9047;53.486;10.218;2023-02-15T13:49:39;7.40;99.90
17845;DHT22;9047;53.486;10.218;2023-02-15T13:52:18;7.50;99.90
17845;DHT22;9047;53.486;10.218;2023-02-15T13:55:16;7.50;99.90
17845;DHT22;9047;53.486;10.218;2023-02-15T13:58:01;7.50;99.90
17845;DHT22;9047;53.486;10.218;2023-02-15T14:00:40;7.50;99.90
17845;DHT22;9047;53.486;10.218;2023-02-15T14:03:47;7.40;99.90
17845;DHT22;9047;53.486;10.218;2023-02-15T14:09:24;7.40;99.90
17845;DHT22;9047;53.486;10.218;2023-02-15T14:12:11;7.30;99.90
17845;DHT22;9047;53.486;10.218;2023-02-15T14:14:57;7.10;99.90
17845;DHT22;9047;53.486;10.218;2023-02-15T14:17:40;7.10;99.90
17845;DHT22;9047;53.486;10.218;2023-02-15T14:20:20;7.20;99.90
17845;DHT22;9047;53.486;10.218;2023-02-15T14:22:53;7.40;99.90
17845;DHT22;9047;53.486;10.218;2023-02-15T14:25:33;7.70;99.90
17845;DHT22;9047;53.486;10.218;2023-02-15T14:28:08;7.70;99.90
17845;DHT22;9047;53.486;10.218;2023-02-15T14:30:39;7.80;99.90
17845;DHT22;9047;53.486;10.218;2023-02-15T14:33:10;7.90;99.90
17845;DHT22;9047;53.486;10.218;2023-02-15T14:35:43;7.90;99.90
17845;DHT22;9047;53.486;10.218;2023-02-15T14:38:17;7.90;99.90
17845;DHT22;9047;53.486;10.218;2023-02-15T14:40:53;7.90;99.90
17845;DHT22;9047;53.486;10.218;2023-02-15T14:43:48;7.80;99.90
17845;DHT22;9047;53.486;10.218;2023-02-15T14:46:27;7.80;99.90
17845;DHT22;9047;53.486;10.218;2023-02-15T14:49:03;7.80;99.90
17845;DHT22;9047;53.486;10.218;2023-02-15T14:51:54;7.70;99.90
17845;DHT22;9047;53.486;10.218;2023-02-15T14:54:58;7.60;99.90
17845;DHT22;9047;53.486;10.218;2023-02-15T14:57:32;7.50;99.90
17845;DHT22;9047;53.486;10.218;2023-02-15T15:00:12;7.50;99.90
17845;DHT22;9047;53.486;10.218;2023-02-15T15:02:54;7.40;99.90
17845;DHT22;9047;53.486;10.218;2023-02-15T15:05:25;7.30;99.90
17845;DHT22;9047;53.486;10.218;2023-02-15T15:08:05;7.30;99.90
17845;DHT22;9047;53.486;10.218;2023-02-15T15:10:41;7.20;99.90
17845;DHT22;9047;53.486;10.218;2023-02-15T15:13:38;7.20;99.90
17845;DHT22;9047;53.486;10.218;2023-02-15T15:16:35;7.20;99.90
17845;DHT22;9047;53.486;10.218;2023-02-15T15:22:33;7.10;99.90
17845;DHT22;9047;53.486;10.218;2023-02-15T15:25:03;7.10;99.90
17845;DHT22;9047;53.486;10.218;2023-02-15T15:27:43;7.00;99.90
17845;DHT22;9047;53.486;10.218;2023-02-15T15:33:57;6.90;99.90
17845;DHT22;9047;53.486;10.218;2023-02-15T15:40:08;6.80;99.90
17845;DHT22;9047;53.486;10.218;2023-02-15T15:42:48;6.70;99.90
17845;DHT22;9047;53.486;10.218;2023-02-15T15:45:48;6.60;99.90
17845;DHT22;9047;53.486;10.218;2023-02-15T15:48:29;6.60;99.90
17845;DHT22;9047;53.486;10.218;2023-02-15T15:51:02;6.50;99.90
17845;DHT22;9047;53.486;10.218;2023-02-15T15:53:39;6.40;99.90
17845;DHT22;9047;53.486;10.218;2023-02-15T15:56:12;6.20;99.90
17845;DHT22;9047;53.486;10.218;2023-02-15T15:58:46;6.20;99.90
17845;DHT22;9047;53.486;10.218;2023-02-15T16:01:13;6.10;99.90
17845;DHT22;9047;53.486;10.218;2023-02-15T16:03:50;6.10;99.90
17845;DHT22;9047;53.486;10.218;2023-02-15T16:06:34;6.00;99.90
17845;DHT22;9047;53.486;10.218;2023-02-15T16:09:26;5.90;99.90
17845;DHT22;9047;53.486;10.218;2023-02-15T16:11:57;5.80;99.90
17845;DHT22;9047;53.486;10.218;2023-02-15T16:14:29;5.70;99.90
17845;DHT22;9047;53.486;10.218;2023-02-15T16:17:00;5.60;99.90
17845;DHT22;9047;53.486;10.218;2023-02-15T16:19:30;5.50;99.90
17845;DHT22;9047;53.486;10.218;2023-02-15T16:22:02;5.40;99.90
17845;DHT22;9047;53.486;10.218;2023-02-15T16:24:55;5.40;99.90
17845;DHT22;9047;53.486;10.218;2023-02-15T16:27:36;5.30;99.90
17845;DHT22;9047;53.486;10.218;2023-02-15T16:30:21;5.20;99.90
17845;DHT22;9047;53.486;10.218;2023-02-15T16:32:53;5.10;99.90
17845;DHT22;9047;53.486;10.218;2023-02-15T16:35:24;5.00;99.90
17845;DHT22;9047;53.486;10.218;2023-02-15T16:37:55;5.00;99.90
17845;DHT22;9047;53.486;10.218;2023-02-15T16:40:36;4.90;99.90
17845;DHT22;9047;53.486;10.218;2023-02-15T16:43:13;4.90;99.90
17845;DHT22;9047;53.486;10.218;2023-02-15T16:45:44;4.80;99.90
17845;DHT22;9047;53.486;10.218;2023-02-15T16:48:16;4.70;99.90
17845;DHT22;9047;53.486;10.218;2023-02-15T16:50:48;4.70;99.90
17845;DHT22;9047;53.486;10.218;2023-02-15T16:53:21;4.60;99.90
17845;DHT22;9047;53.486;10.218;2023-02-15T16:55:55;4.60;99.90
17845;DHT22;9047;53.486;10.218;2023-02-15T16:58:36;4.50;99.90
17845;DHT22;9047;53.486;10.218;2023-02-15T17:01:13;4.40;99.90